Jenks, OK (74037)

7:18 AM CDT on May 05, 2015 (GMT -0500)
KOKJENKS3 | | Change Station
CLOSE
Current Station
Personal Weather Station
Location: Jenks, OK
Elevation: 630 ft
Nearby Weather Stations

Elev 630 ft 36.03 °N, 95.97 °W | Updated 18 seconds ago

Clear
Clear
62.6 °F
Feels Like 62.6 °F
N
1.0
Wind Variable Wind from ESE
Gusts 6.0 mph

Today
High -- | Low -- °F
--% Chance of Precip.
Yesterday
High -- | Low -- °F
Precip. -- in
6:27 AM 8:14 PM
Full, 98% visible
Pressure 30.09 in
Visibility 9.0 miles
Clouds Clear
Dew Point 58 °F
Humidity 85%
Rainfall 0.00 in
Snow Depth Not available.
UV 0 out of 12
Pollen 7.40 out of 12
Air Quality Not available.
Flu Activity Local Activity
METAR KRVS 051153Z 00000KT 9SM CLR 14/13 A3007 RMK AO2 SLP188 T01440128 10156 20133 53004

More Conditions Fewer Conditions

Pressure 30.09 in
Visibility 9.0 miles
Clouds Clear
Dew Point 58 °F
Humidity 85%
Rainfall 0.00 in
Snow Depth Not available.
UV 0 out of 12
Pollen 7.40 out of 12
Air Quality Not available.
Flu Activity Local Activity
METAR KRVS 051153Z 00000KT 9SM CLR 14/13 A3007 RMK AO2 SLP188 T01440128 10156 20133 53004

More Conditions Fewer Conditions

Nepal has a long way to go to dig out and rebuild from a devastating earthquake. We have teamed up with several charities and organizations to make contributing to the relief effort as easy as possible.
How you can help: Portlight Strategies | Red Cross

10-Day Weather Forecast

Almanac

Astronomy

May. 05, 2015 Rise Set
Actual Time
Civil Twilight
Nautical Twilight
Astronomical Twilight
Moon
Length of Visible Light
Length of Day
Tomorrow will be .
, % of the Moon is Illuminated

Today's Extremes

State Highs State Lows

Community

WunderPhotos

Upload Photos

1,818,866 photos uploaded!

WunderBlogs® & News

Nearby

Air Quality

  Air Quality AQ Index Pollutant
Not available.

Snow Depth

Station Depth Elevation

Earthquake Activity

City Distance Mag. Time & Date
Minimum magnitude displayed is 2.5.

Coastal Water Temperatures

Place Temperature

Stations

Nearby Weather Stations

Station Location Temp. Windchill Dew Point Humidity Wind Precip. Elev Updated Type